Time;durP1;ratioP1;P1;durP2;ratioP2;P2;SDS_P1;SDS_P2;PMS_P1;PMS_P2;Temp;Humidity;BMP_temperature;BMP_pressure;BME280_temperature;BME280_humidity;BME280_pressure;Samples;Min_cycle;Max_cycle;Signal;HPM_P1;HPM_P2
2021/10/11 00:02:06;;;;;;;5.95;3.92;;;13.60;96.70;;;;;;5095949;28;20415;-78
2021/10/11 00:04:34;;;;;;;6.63;3.70;;;13.20;96.70;;;;;;5090487;28;20517;-77
2021/10/11 00:07:04;;;;;;;5.32;3.05;;;13.10;96.70;;;;;;5092443;28;20119;-77
2021/10/11 00:09:34;;;;;;;5.80;3.22;;;13.00;96.70;;;;;;5099584;28;20512;-77
2021/10/11 00:12:03;;;;;;;5.82;3.22;;;13.10;96.70;;;;;;5096457;28;20052;-77
2021/10/11 00:14:31;;;;;;;4.60;2.47;;;13.10;96.70;;;;;;5096314;28;20043;-77
2021/10/11 00:16:59;;;;;;;4.80;2.53;;;13.10;96.70;;;;;;5093044;28;20101;-78
2021/10/11 00:19:33;;;;;;;3.35;2.50;;;12.70;96.70;;;;;;5095508;28;23219;-77
2021/10/11 00:22:01;;;;;;;5.28;2.60;;;12.40;96.70;;;;;;5094812;28;20039;-78
2021/10/11 00:24:29;;;;;;;3.70;2.45;;;12.40;96.70;;;;;;5095317;28;20440;-78
2021/10/11 00:26:59;;;;;;;5.65;2.50;;;12.60;96.70;;;;;;5087332;28;20078;-78
2021/10/11 00:29:27;;;;;;;6.22;3.53;;;12.70;96.70;;;;;;5093381;28;20133;-77
2021/10/11 00:31:55;;;;;;;3.55;2.50;;;12.80;96.70;;;;;;5095022;28;20051;-78
2021/10/11 00:34:23;;;;;;;5.68;2.83;;;12.90;96.70;;;;;;5092844;28;20426;-79
2021/10/11 00:36:51;;;;;;;7.10;2.70;;;12.80;96.70;;;;;;5090266;27;20067;-78
2021/10/11 00:39:19;;;;;;;5.60;3.13;;;12.90;96.70;;;;;;5093296;28;20044;-78
2021/10/11 00:41:47;;;;;;;6.13;3.00;;;12.90;96.70;;;;;;5087618;28;20040;-78
2021/10/11 00:44:17;;;;;;;6.85;2.90;;;13.00;96.70;;;;;;5093796;28;20132;-78
2021/10/11 00:46:45;;;;;;;3.97;2.60;;;13.10;96.70;;;;;;5093465;27;20059;-79
2021/10/11 00:49:13;;;;;;;5.13;2.80;;;13.10;96.70;;;;;;5074898;28;20079;-78
2021/10/11 00:51:42;;;;;;;5.45;2.92;;;13.10;96.70;;;;;;5091016;28;20032;-78
2021/10/11 00:54:11;;;;;;;4.15;2.78;;;13.10;96.70;;;;;;5097098;27;20047;-78
2021/10/11 00:56:39;;;;;;;5.97;3.95;;;13.00;96.70;;;;;;5103985;27;20043;-78
2021/10/11 00:59:08;;;;;;;5.40;3.15;;;12.80;96.70;;;;;;5091362;28;20044;-78
2021/10/11 01:01:37;;;;;;;3.75;2.60;;;12.70;96.70;;;;;;5109236;27;20479;-77
2021/10/11 01:04:06;;;;;;;3.97;2.70;;;12.50;96.70;;;;;;5079413;27;20043;-77
2021/10/11 01:06:37;;;;;;;5.97;2.75;;;12.70;96.70;;;;;;5100489;28;20110;-77
2021/10/11 01:09:06;;;;;;;7.55;3.78;;;12.80;96.70;;;;;;5078294;27;20066;-77
2021/10/11 01:11:34;;;;;;;7.15;3.50;;;12.80;96.70;;;;;;5087560;28;20040;-77
2021/10/11 01:14:03;;;;;;;5.60;3.03;;;13.00;96.70;;;;;;5076571;28;20046;-78
2021/10/11 01:16:32;;;;;;;4.40;2.80;;;13.00;96.70;;;;;;5087846;28;20066;-78
2021/10/11 01:19:02;;;;;;;4.68;2.80;;;13.10;96.70;;;;;;5094072;28;20075;-78
2021/10/11 01:21:31;;;;;;;5.10;2.83;;;13.20;96.70;;;;;;5089284;27;20093;-78
2021/10/11 01:23:59;;;;;;;4.97;2.55;;;13.20;96.70;;;;;;5090345;28;20310;-77
2021/10/11 01:26:36;;;;;;;4.97;2.65;;;13.10;96.70;;;;;;5091412;28;20036;-77
2021/10/11 01:29:06;;;;;;;5.03;2.97;;;13.10;96.70;;;;;;5106428;27;20055;-78
2021/10/11 01:31:34;;;;;;;6.45;3.20;;;13.30;96.70;;;;;;5093559;27;20077;-78
2021/10/11 01:34:03;;;;;;;5.45;3.35;;;13.30;96.70;;;;;;5090335;28;20043;-78
2021/10/11 01:36:32;;;;;;;5.00;2.88;;;13.30;96.70;;;;;;5087615;28;20036;-78
2021/10/11 01:39:03;;;;;;;4.25;3.00;;;13.10;96.70;;;;;;5077301;27;20125;-78
2021/10/11 01:41:32;;;;;;;4.53;2.88;;;13.10;96.70;;;;;;5094019;27;20500;-78
2021/10/11 01:44:00;;;;;;;5.47;2.95;;;13.10;96.70;;;;;;5088500;28;20574;-78
2021/10/11 01:46:28;;;;;;;6.88;3.65;;;13.00;96.70;;;;;;5094870;27;20446;-78
2021/10/11 01:48:56;;;;;;;5.35;2.80;;;13.00;96.70;;;;;;5105368;27;20048;-78
2021/10/11 01:51:24;;;;;;;5.40;3.05;;;12.90;96.70;;;;;;5096611;28;20097;-78
2021/10/11 01:53:54;;;;;;;7.03;2.60;;;12.90;96.70;;;;;;5086588;27;20042;-78
2021/10/11 01:56:22;;;;;;;6.22;2.88;;;12.90;96.70;;;;;;5093262;27;20053;-78
2021/10/11 01:58:50;;;;;;;4.68;2.75;;;13.00;96.70;;;;;;5097837;27;20502;-78
2021/10/11 02:01:19;;;;;;;4.20;2.95;;;13.00;96.70;;;;;;5092823;27;20408;-78
2021/10/11 02:03:47;;;;;;;4.82;2.75;;;12.90;96.70;;;;;;5092015;28;20031;-78
2021/10/11 02:06:15;;;;;;;4.30;2.70;;;12.80;96.70;;;;;;5088344;28;20039;-77
2021/10/11 02:08:43;;;;;;;4.88;2.95;;;12.80;96.70;;;;;;5087918;27;20042;-78
2021/10/11 02:11:12;;;;;;;5.93;2.35;;;12.80;96.70;;;;;;5091979;27;20058;-78
2021/10/11 02:13:40;;;;;;;3.47;2.35;;;12.80;96.70;;;;;;5085789;28;20040;-79
2021/10/11 02:16:08;;;;;;;5.38;3.10;;;12.80;96.70;;;;;;5081396;28;20040;-79
2021/10/11 02:18:36;;;;;;;5.05;2.95;;;12.90;96.70;;;;;;5095784;27;20035;-78
2021/10/11 02:21:04;;;;;;;5.20;2.28;;;12.80;96.70;;;;;;5079198;27;20289;-78
2021/10/11 02:23:32;;;;;;;4.68;2.35;;;12.80;96.70;;;;;;5098168;27;20039;-79
2021/10/11 02:26:00;;;;;;;4.50;2.20;;;12.80;96.70;;;;;;5107702;27;20122;-79
2021/10/11 02:28:30;;;;;;;3.95;2.53;;;12.70;96.70;;;;;;5091950;27;20035;-79
2021/10/11 02:30:58;;;;;;;5.53;2.67;;;12.70;96.70;;;;;;5108554;27;20127;-79
2021/10/11 02:33:27;;;;;;;4.20;2.75;;;12.80;96.70;;;;;;5092750;27;20039;-79
2021/10/11 02:35:55;;;;;;;7.28;2.67;;;12.80;96.70;;;;;;5088783;27;20048;-79
2021/10/11 02:38:23;;;;;;;5.35;2.80;;;12.70;96.70;;;;;;5085311;28;20036;-79
2021/10/11 02:40:53;;;;;;;8.32;3.05;;;12.60;96.70;;;;;;5086820;28;20394;-78
2021/10/11 02:43:22;;;;;;;5.22;2.97;;;12.50;96.70;;;;;;5087771;28;20083;-79
2021/10/11 02:45:52;;;;;;;5.82;2.80;;;12.50;96.70;;;;;;5096247;27;20067;-78
2021/10/11 02:48:21;;;;;;;4.70;2.67;;;12.40;96.70;;;;;;5077338;28;20112;-78
2021/10/11 02:50:49;;;;;;;5.63;3.00;;;12.50;96.70;;;;;;5085919;28;20126;-78
2021/10/11 02:53:18;;;;;;;6.95;3.38;;;12.70;96.70;;;;;;5090044;28;20039;-79
2021/10/11 02:55:46;;;;;;;3.80;3.05;;;12.40;96.70;;;;;;5081300;27;20042;-79
2021/10/11 02:58:14;;;;;;;5.22;2.80;;;12.30;96.70;;;;;;5094941;27;20061;-79
2021/10/11 03:00:43;;;;;;;4.13;2.78;;;12.40;96.70;;;;;;5085063;27;20043;-78
2021/10/11 03:03:13;;;;;;;5.78;2.88;;;12.60;96.70;;;;;;5107937;27;20057;-79
2021/10/11 03:05:41;;;;;;;4.63;2.70;;;12.40;96.70;;;;;;5113172;27;20047;-78
2021/10/11 03:08:10;;;;;;;5.82;3.03;;;12.40;96.70;;;;;;5090258;28;20039;-79
2021/10/11 03:10:38;;;;;;;4.70;3.30;;;12.50;96.70;;;;;;5085990;27;20035;-78
2021/10/11 03:13:06;;;;;;;6.20;2.97;;;12.40;96.70;;;;;;5088143;28;20042;-78
2021/10/11 03:15:35;;;;;;;5.18;3.08;;;12.20;96.70;;;;;;5098785;27;20153;-78
2021/10/11 03:18:04;;;;;;;5.53;3.30;;;12.10;96.70;;;;;;5069200;28;20093;-78
2021/10/11 03:20:34;;;;;;;4.10;2.53;;;12.00;96.70;;;;;;5084617;28;20042;-78
2021/10/11 03:23:03;;;;;;;4.68;2.75;;;11.80;96.70;;;;;;5093321;27;20118;-78
2021/10/11 03:25:31;;;;;;;4.55;2.95;;;11.90;96.70;;;;;;5078763;28;20043;-78
2021/10/11 03:27:59;;;;;;;4.05;2.88;;;12.00;96.70;;;;;;5082006;27;20243;-78
2021/10/11 03:30:28;;;;;;;4.75;2.80;;;12.00;96.70;;;;;;5108957;27;20043;-79
2021/10/11 03:32:56;;;;;;;4.97;2.67;;;12.10;96.70;;;;;;5089506;28;20096;-78
2021/10/11 03:35:25;;;;;;;6.63;3.25;;;12.10;96.70;;;;;;5088068;28;20039;-79
2021/10/11 03:37:55;;;;;;;6.93;3.05;;;12.10;96.70;;;;;;5092665;27;20067;-78
2021/10/11 03:40:24;;;;;;;5.30;2.92;;;12.00;96.70;;;;;;5079517;28;20047;-78
2021/10/11 03:42:52;;;;;;;3.88;2.75;;;12.00;96.70;;;;;;5088695;28;20066;-78
2021/10/11 03:45:21;;;;;;;5.03;2.65;;;12.00;96.70;;;;;;5112272;27;20613;-79
2021/10/11 03:47:49;;;;;;;5.32;2.63;;;12.00;96.70;;;;;;5086249;28;20085;-79
2021/10/11 03:50:18;;;;;;;4.72;3.22;;;12.10;96.70;;;;;;5083097;28;20187;-78
2021/10/11 03:52:46;;;;;;;4.65;2.78;;;12.10;96.70;;;;;;5090059;28;20073;-78
2021/10/11 03:55:16;;;;;;;3.78;2.50;;;12.20;96.70;;;;;;5077594;28;20060;-77
2021/10/11 03:57:44;;;;;;;6.22;2.90;;;12.10;96.70;;;;;;5070634;28;20048;-78
2021/10/11 04:00:13;;;;;;;4.45;3.00;;;12.10;96.70;;;;;;5085519;28;20473;-79
2021/10/11 04:02:42;;;;;;;3.80;2.50;;;12.00;96.70;;;;;;5095113;28;20048;-78
2021/10/11 04:05:11;;;;;;;6.25;2.95;;;11.80;96.70;;;;;;5089591;28;20056;-78
2021/10/11 04:07:42;;;;;;;4.65;2.70;;;11.80;96.70;;;;;;5090626;28;20047;-78
2021/10/11 04:10:12;;;;;;;6.82;2.47;;;11.80;96.70;;;;;;5089209;28;20048;-78
2021/10/11 04:12:46;;;;;;;6.90;2.95;;;11.80;96.70;;;;;;5078492;28;20121;-78
2021/10/11 04:15:14;;;;;;;4.15;2.58;;;11.90;96.70;;;;;;5089258;28;20048;-78
2021/10/11 04:17:43;;;;;;;6.32;3.00;;;12.00;96.70;;;;;;5080100;28;20046;-78
2021/10/11 04:20:11;;;;;;;3.65;2.67;;;12.10;96.70;;;;;;5071274;28;20059;-78
2021/10/11 04:22:39;;;;;;;8.20;2.97;;;12.00;96.70;;;;;;5086931;28;20048;-78
2021/10/11 04:25:08;;;;;;;4.07;2.88;;;11.90;96.70;;;;;;5087496;28;20064;-78
2021/10/11 04:27:39;;;;;;;4.85;2.72;;;12.00;96.70;;;;;;5093884;28;20156;-78
2021/10/11 04:30:10;;;;;;;4.03;2.65;;;12.00;96.70;;;;;;5085875;28;20044;-79
2021/10/11 04:32:38;;;;;;;4.13;2.65;;;12.00;96.70;;;;;;5074309;28;20044;-78
2021/10/11 04:35:07;;;;;;;4.05;2.67;;;12.00;96.70;;;;;;5089764;28;20048;-78
2021/10/11 04:37:39;;;;;;;10.82;2.90;;;11.90;96.70;;;;;;5090104;28;20683;-78
2021/10/11 04:40:09;;;;;;;4.18;2.47;;;11.70;96.70;;;;;;5099120;28;20036;-78
2021/10/11 04:42:38;;;;;;;5.50;3.22;;;11.70;96.70;;;;;;5076843;28;20055;-79
2021/10/11 04:45:09;;;;;;;6.18;2.45;;;11.70;96.70;;;;;;5094931;28;20063;-79
2021/10/11 04:47:37;;;;;;;4.47;2.80;;;11.50;96.70;;;;;;5082138;28;20074;-79
2021/10/11 04:50:07;;;;;;;7.60;2.88;;;11.50;96.70;;;;;;5092107;28;20052;-79
2021/10/11 04:52:36;;;;;;;5.05;2.95;;;11.40;96.70;;;;;;5097031;28;20028;-79
2021/10/11 04:55:05;;;;;;;6.30;3.10;;;11.50;96.70;;;;;;5079554;28;20046;-77
2021/10/11 04:57:33;;;;;;;5.20;2.97;;;11.70;96.70;;;;;;5089977;28;20048;-77
2021/10/11 05:00:02;;;;;;;5.68;2.80;;;11.90;96.70;;;;;;5090648;28;20130;-77
2021/10/11 05:02:31;;;;;;;4.78;3.17;;;11.80;96.70;;;;;;5082898;28;20108;-77
2021/10/11 05:05:00;;;;;;;7.13;3.85;;;11.80;96.70;;;;;;5094008;28;20036;-77
2021/10/11 05:07:28;;;;;;;5.50;3.67;;;11.80;96.70;;;;;;5091708;28;20048;-77
2021/10/11 05:09:56;;;;;;;6.68;3.63;;;11.80;96.70;;;;;;5098174;28;20118;-77
2021/10/11 05:12:25;;;;;;;6.75;3.60;;;11.80;96.70;;;;;;5089987;28;20048;-77
2021/10/11 05:14:53;;;;;;;6.05;3.33;;;11.90;96.70;;;;;;5088130;28;20493;-77
2021/10/11 05:17:21;;;;;;;8.23;4.07;;;12.00;96.70;;;;;;5084009;28;20028;-77
2021/10/11 05:19:51;;;;;;;6.80;4.28;;;11.90;96.70;;;;;;5090835;28;20043;-77
2021/10/11 05:22:20;;;;;;;6.70;3.67;;;11.90;96.70;;;;;;5098316;28;20050;-77
2021/10/11 05:24:48;;;;;;;5.78;3.13;;;11.80;96.70;;;;;;5072105;28;20440;-77
2021/10/11 05:27:17;;;;;;;5.32;3.03;;;11.90;96.70;;;;;;5090869;28;20042;-78
2021/10/11 05:29:45;;;;;;;5.20;3.38;;;11.90;96.70;;;;;;5080581;28;20117;-78
2021/10/11 05:32:14;;;;;;;7.47;3.05;;;11.90;96.70;;;;;;5081332;28;20048;-77
2021/10/11 05:34:42;;;;;;;5.40;3.08;;;12.00;96.70;;;;;;5088036;28;20044;-77
2021/10/11 05:37:13;;;;;;;7.32;3.13;;;11.90;96.70;;;;;;5086461;28;20546;-77
2021/10/11 05:39:41;;;;;;;4.43;2.95;;;11.90;96.70;;;;;;5087023;28;20044;-77
2021/10/11 05:42:10;;;;;;;5.97;3.55;;;11.90;96.70;;;;;;5103903;27;20036;-77
2021/10/11 05:44:38;;;;;;;4.80;2.92;;;11.90;96.70;;;;;;5099578;28;20042;-77
2021/10/11 05:47:07;;;;;;;6.57;3.00;;;11.80;96.70;;;;;;5086141;28;20024;-77
2021/10/11 05:49:35;;;;;;;5.65;3.33;;;12.20;96.70;;;;;;5084325;28;20697;-77
2021/10/11 05:52:05;;;;;;;6.60;3.03;;;12.20;96.70;;;;;;5087004;28;20040;-77
2021/10/11 05:54:35;;;;;;;7.38;2.92;;;12.10;96.70;;;;;;5082500;28;20866;-77
2021/10/11 05:57:04;;;;;;;6.07;3.65;;;12.10;96.70;;;;;;5084088;28;20607;-77
2021/10/11 05:59:32;;;;;;;5.57;3.40;;;12.10;96.70;;;;;;5090933;28;20406;-77
2021/10/11 06:02:00;;;;;;;8.63;3.30;;;12.10;96.70;;;;;;5093138;28;20525;-77
2021/10/11 06:04:29;;;;;;;7.20;3.63;;;12.10;96.70;;;;;;5095249;28;20037;-77
2021/10/11 06:06:57;;;;;;;8.77;3.72;;;12.10;96.70;;;;;;5089284;28;20126;-77
2021/10/11 06:09:26;;;;;;;7.18;3.38;;;11.90;96.70;;;;;;5088497;28;20506;-77
2021/10/11 06:11:56;;;;;;;9.45;4.75;;;12.00;96.70;;;;;;5084700;28;20067;-77
2021/10/11 06:14:25;;;;;;;7.25;3.92;;;12.10;96.70;;;;;;5088629;28;20102;-77
2021/10/11 06:16:53;;;;;;;7.97;3.72;;;12.10;96.70;;;;;;5084995;28;20043;-77
2021/10/11 06:19:21;;;;;;;6.90;3.88;;;12.20;96.70;;;;;;5078737;28;20055;-77
2021/10/11 06:21:50;;;;;;;6.40;4.40;;;12.20;96.70;;;;;;5083205;28;20127;-78
2021/10/11 06:24:23;;;;;;;12.75;4.80;;;12.20;96.70;;;;;;5076725;28;20524;-77
2021/10/11 06:26:51;;;;;;;7.45;4.35;;;12.30;96.70;;;;;;5094166;28;20044;-77
2021/10/11 06:29:21;;;;;;;10.75;4.68;;;12.30;96.70;;;;;;5086901;28;20505;-77
2021/10/11 06:31:50;;;;;;;10.20;5.00;;;12.40;96.70;;;;;;5086652;28;20048;-76
2021/10/11 06:34:18;;;;;;;8.98;5.50;;;12.40;96.70;;;;;;5077545;28;20043;-76
2021/10/11 06:36:47;;;;;;;13.35;5.50;;;12.30;96.70;;;;;;5093194;28;20055;-77
2021/10/11 06:39:15;;;;;;;12.65;6.00;;;12.30;96.70;;;;;;5083862;28;20526;-76
2021/10/11 06:41:44;;;;;;;9.73;5.60;;;12.20;96.70;;;;;;5085694;28;20047;-76
2021/10/11 06:44:12;;;;;;;11.77;6.20;;;12.30;96.70;;;;;;5085949;28;20036;-76
2021/10/11 06:46:42;;;;;;;12.05;6.20;;;12.30;96.70;;;;;;5082491;28;20067;-76
2021/10/11 06:49:10;;;;;;;12.25;5.90;;;12.30;96.70;;;;;;5092165;28;20430;-76
2021/10/11 06:51:39;;;;;;;12.82;5.97;;;12.50;96.70;;;;;;5082860;28;20048;-76
2021/10/11 06:54:07;;;;;;;15.55;7.95;;;12.50;96.70;;;;;;5090327;28;20044;-76
2021/10/11 06:56:36;;;;;;;16.85;7.57;;;12.70;96.70;;;;;;5105641;27;20040;-76
2021/10/11 06:59:04;;;;;;;13.32;8.27;;;12.60;96.70;;;;;;5082837;28;20132;-77
2021/10/11 07:01:32;;;;;;;12.52;6.93;;;12.70;96.70;;;;;;5113759;27;20667;-76
2021/10/11 07:04:03;;;;;;;17.80;7.55;;;12.80;96.70;;;;;;5094532;28;20134;-76
2021/10/11 07:06:32;;;;;;;11.20;6.38;;;12.80;96.70;;;;;;5087036;28;20505;-77
2021/10/11 07:09:04;;;;;;;13.77;6.10;;;12.80;96.70;;;;;;5082127;27;20711;-76
2021/10/11 07:11:32;;;;;;;13.68;6.15;;;12.90;96.70;;;;;;5106518;27;20116;-77
2021/10/11 07:14:00;;;;;;;11.20;5.60;;;13.00;96.70;;;;;;5086520;27;20035;-76
2021/10/11 07:16:48;;;;;;;9.25;5.57;;;13.00;96.70;;;;;;5098813;27;20039;-76
2021/10/11 07:19:18;;;;;;;9.60;5.88;;;13.00;96.70;;;;;;5106684;27;20071;-76
2021/10/11 07:21:46;;;;;;;9.52;5.47;;;13.00;96.70;;;;;;5095710;27;20035;-77
2021/10/11 07:24:15;;;;;;;11.23;5.55;;;13.10;96.70;;;;;;5107985;27;20441;-77
2021/10/11 07:26:44;;;;;;;10.48;6.18;;;13.10;96.70;;;;;;5112602;27;20046;-84
2021/10/11 07:29:12;;;;;;;11.73;6.70;;;13.20;96.70;;;;;;5085568;28;20044;-77
2021/10/11 07:31:40;;;;;;;12.13;6.88;;;13.20;96.70;;;;;;5093212;28;20055;-77
2021/10/11 07:34:09;;;;;;;12.88;8.05;;;13.40;96.70;;;;;;5075127;27;20040;-82
2021/10/11 07:36:39;;;;;;;12.88;7.43;;;13.40;96.70;;;;;;5102957;27;20067;-77
2021/10/11 07:39:07;;;;;;;12.13;7.07;;;13.50;96.70;;;;;;5102640;27;20035;-76
2021/10/11 07:41:35;;;;;;;16.02;7.00;;;13.40;96.70;;;;;;5087343;28;20043;-78
2021/10/11 07:44:06;;;;;;;15.52;6.32;;;13.30;96.70;;;;;;5091863;28;20399;-77
2021/10/11 07:46:34;;;;;;;15.07;7.38;;;13.40;96.70;;;;;;5098139;28;20076;-78
2021/10/11 07:49:19;;;;;;;19.17;8.35;;;13.40;96.70;;;;;;5089732;28;20043;-77
2021/10/11 07:51:50;;;;;;;12.73;7.10;;;13.40;96.70;;;;;;5090463;28;20039;-79
2021/10/11 07:54:19;;;;;;;13.23;7.53;;;13.50;96.70;;;;;;5090645;28;20044;-76
2021/10/11 07:56:48;;;;;;;12.43;6.32;;;13.70;96.70;;;;;;5102372;28;20046;-78
2021/10/11 07:59:19;;;;;;;12.38;6.10;;;13.80;96.70;;;;;;5089646;28;20036;-78
2021/10/11 08:01:50;;;;;;;10.65;5.88;;;13.80;96.70;;;;;;5089432;28;20067;-79
2021/10/11 08:04:19;;;;;;;8.77;5.25;;;13.90;96.70;;;;;;5113794;28;20047;-78
2021/10/11 08:06:48;;;;;;;12.60;5.53;;;14.00;96.70;;;;;;5109293;28;20487;-79
2021/10/11 08:09:16;;;;;;;11.32;5.72;;;14.20;96.70;;;;;;5075581;28;20043;-78
2021/10/11 08:11:46;;;;;;;14.43;6.28;;;14.20;96.70;;;;;;5078773;28;20059;-78
2021/10/11 08:14:15;;;;;;;10.93;5.60;;;14.30;96.70;;;;;;5094916;27;20126;-78
2021/10/11 08:16:43;;;;;;;14.82;5.40;;;14.40;96.70;;;;;;5096476;28;20043;-78
2021/10/11 08:19:12;;;;;;;10.80;4.78;;;14.60;96.70;;;;;;5093023;27;20130;-78
2021/10/11 08:21:41;;;;;;;10.32;5.28;;;14.60;96.70;;;;;;5095852;27;20044;-77
2021/10/11 08:24:12;;;;;;;9.07;4.57;;;14.70;96.70;;;;;;5110149;27;20200;-78
2021/10/11 08:26:40;;;;;;;9.32;5.20;;;14.90;96.70;;;;;;5093856;27;20138;-77
2021/10/11 08:29:08;;;;;;;9.07;4.70;;;15.10;96.70;;;;;;5090853;27;20493;-77
2021/10/11 08:31:37;;;;;;;8.90;4.95;;;15.10;96.70;;;;;;5090957;27;20051;-80
2021/10/11 08:34:05;;;;;;;12.07;5.70;;;15.20;96.70;;;;;;5102259;27;20088;-84
2021/10/11 08:36:33;;;;;;;10.27;5.03;;;15.30;96.70;;;;;;5084157;27;20116;-79
2021/10/11 08:39:02;;;;;;;11.60;5.32;;;15.40;96.70;;;;;;5084176;27;20027;-80
2021/10/11 08:41:32;;;;;;;12.38;5.22;;;15.60;96.70;;;;;;5073508;27;20047;-81
2021/10/11 08:44:01;;;;;;;10.98;5.10;;;15.70;96.70;;;;;;5098093;27;20043;-80
2021/10/11 08:46:29;;;;;;;8.70;4.10;;;15.80;96.70;;;;;;5117841;27;20100;-82
2021/10/11 08:48:59;;;;;;;6.30;3.65;;;15.90;96.70;;;;;;5113646;27;20123;-82
2021/10/11 08:51:27;;;;;;;5.10;2.33;;;16.10;96.70;;;;;;5095766;28;20044;-83
2021/10/11 08:53:56;;;;;;;5.20;2.92;;;16.20;96.70;;;;;;5096081;27;20066;-81
2021/10/11 08:56:24;;;;;;;4.55;2.45;;;16.40;96.70;;;;;;5115499;27;20078;-82
2021/10/11 08:58:54;;;;;;;5.20;2.38;;;16.50;96.70;;;;;;5111743;27;20042;-81
2021/10/11 09:01:24;;;;;;;2.88;1.90;;;16.70;96.70;;;;;;5095114;27;20054;-82
2021/10/11 09:03:52;;;;;;;3.33;1.45;;;16.90;96.70;;;;;;5098109;28;20440;-82
2021/10/11 09:06:21;;;;;;;5.93;1.60;;;17.20;96.70;;;;;;5118979;27;20546;-82
2021/10/11 09:08:49;;;;;;;3.03;1.50;;;17.40;96.70;;;;;;5091583;27;20052;-80
2021/10/11 09:11:18;;;;;;;2.40;1.10;;;17.70;96.70;;;;;;5084620;27;20043;-80
2021/10/11 09:13:53;;;;;;;2.53;1.10;;;17.80;96.70;;;;;;5090355;27;20040;-82
2021/10/11 09:16:33;;;;;;;3.35;1.05;;;17.90;96.70;;;;;;5091162;27;20044;-80
2021/10/11 09:19:10;;;;;;;2.33;1.30;;;17.80;96.70;;;;;;5090771;27;20454;-81
2021/10/11 09:21:38;;;;;;;2.47;0.90;;;17.70;96.70;;;;;;5112876;27;20112;-80
2021/10/11 09:24:08;;;;;;;2.70;1.10;;;17.60;96.70;;;;;;5106160;27;20118;-81
2021/10/11 09:26:44;;;;;;;2.33;1.00;;;17.60;96.70;;;;;;5080721;28;20047;-81
2021/10/11 09:29:13;;;;;;;1.52;0.90;;;17.60;96.70;;;;;;5088503;27;20167;-89
2021/10/11 09:31:47;;;;;;;3.45;0.95;;;17.50;96.70;;;;;;5114209;27;20126;-85
2021/10/11 09:34:18;;;;;;;2.75;0.80;;;17.80;96.70;;;;;;5079566;28;20049;-85
2021/10/11 09:36:57;;;;;;;3.95;0.77;;;18.00;96.70;;;;;;5113507;27;20036;-85
2021/10/11 09:39:27;;;;;;;0.95;0.60;;;18.10;96.70;;;;;;5080136;27;20416;-83
2021/10/11 09:41:56;;;;;;;3.88;0.88;;;18.20;96.70;;;;;;5115102;27;20063;-85
2021/10/11 09:44:25;;;;;;;1.40;0.70;;;18.20;96.70;;;;;;5088769;28;20046;-85
2021/10/11 09:47:02;;;;;;;1.30;0.73;;;18.20;96.70;;;;;;5106392;27;20553;-77
2021/10/11 09:49:30;;;;;;;2.00;0.68;;;18.20;96.70;;;;;;5091139;27;20040;-78
2021/10/11 09:51:59;;;;;;;1.17;0.57;;;18.20;96.70;;;;;;5090743;28;20035;-78
2021/10/11 09:54:27;;;;;;;2.00;1.00;;;18.30;96.70;;;;;;5094709;27;20417;-77
2021/10/11 09:57:00;;;;;;;1.40;0.52;;;18.30;96.70;;;;;;5105550;27;20717;-77
2021/10/11 09:59:30;;;;;;;1.70;0.60;;;18.40;96.70;;;;;;5105666;27;20126;-77
2021/10/11 10:02:01;;;;;;;3.28;0.50;;;18.60;96.70;;;;;;5081153;27;20048;-79
2021/10/11 10:04:35;;;;;;;1.05;0.60;;;18.50;96.50;;;;;;5096033;27;20055;-79
2021/10/11 10:07:07;;;;;;;2.75;0.70;;;18.60;96.20;;;;;;5102749;28;20044;-78
2021/10/11 10:09:44;;;;;;;1.63;0.70;;;18.70;96.10;;;;;;5079293;27;20040;-85
2021/10/11 10:12:13;;;;;;;3.03;1.23;;;18.80;96.20;;;;;;5094811;27;20400;-85
2021/10/11 10:14:41;;;;;;;3.20;1.15;;;18.80;96.00;;;;;;5090249;27;20113;-80
2021/10/11 10:17:11;;;;;;;3.05;0.75;;;18.70;96.10;;;;;;5095193;27;20496;-79
2021/10/11 10:19:41;;;;;;;1.88;0.85;;;18.60;96.40;;;;;;5080100;27;20450;-80
2021/10/11 10:22:13;;;;;;;1.20;0.70;;;18.40;96.70;;;;;;5109569;27;20050;-80
2021/10/11 10:24:41;;;;;;;2.10;0.73;;;18.30;96.50;;;;;;5110943;27;20035;-81
2021/10/11 10:27:11;;;;;;;1.65;0.80;;;18.20;96.70;;;;;;5088277;27;20039;-81
2021/10/11 10:29:44;;;;;;;3.40;1.15;;;18.10;96.70;;;;;;5094350;28;20039;-80
2021/10/11 10:32:17;;;;;;;1.52;0.80;;;18.10;96.70;;;;;;5078433;28;20358;-80
2021/10/11 10:34:45;;;;;;;3.15;0.82;;;18.10;96.70;;;;;;5099111;27;20492;-80
2021/10/11 10:37:14;;;;;;;2.17;0.95;;;18.20;96.70;;;;;;5094970;27;20514;-80
2021/10/11 10:39:45;;;;;;;1.75;0.90;;;18.20;96.70;;;;;;5093056;27;20138;-80
2021/10/11 10:42:24;;;;;;;0.85;0.52;;;18.50;96.40;;;;;;5095182;27;20210;-80
2021/10/11 10:44:53;;;;;;;2.08;0.95;;;18.60;96.30;;;;;;5099911;27;20466;-79
2021/10/11 10:47:33;;;;;;;3.55;0.98;;;18.70;96.70;;;;;;5073196;27;20059;-80
2021/10/11 10:50:07;;;;;;;1.73;0.70;;;18.70;96.70;;;;;;5105802;27;20321;-80
2021/10/11 10:52:36;;;;;;;1.75;0.60;;;18.90;96.70;;;;;;5088553;28;20032;-79
2021/10/11 10:55:05;;;;;;;2.78;0.90;;;19.10;95.50;;;;;;5085054;27;20142;-79
2021/10/11 10:57:33;;;;;;;3.58;0.85;;;19.20;95.70;;;;;;5071193;27;20081;-79
2021/10/11 11:00:05;;;;;;;1.73;0.65;;;19.10;95.60;;;;;;5113362;27;20122;-79
2021/10/11 11:02:34;;;;;;;4.00;0.70;;;19.10;94.90;;;;;;5112034;27;20047;-79
2021/10/11 11:05:05;;;;;;;2.80;0.80;;;19.30;95.60;;;;;;5091309;28;20931;-79
2021/10/11 11:07:39;;;;;;;3.95;1.35;;;19.40;94.20;;;;;;5103949;27;20106;-78
2021/10/11 11:10:12;;;;;;;2.88;0.73;;;19.70;94.60;;;;;;5107098;27;20046;-79
2021/10/11 11:12:42;;;;;;;3.72;1.17;;;19.90;94.40;;;;;;5090252;27;20035;-78
2021/10/11 11:15:20;;;;;;;1.30;0.88;;;20.00;94.90;;;;;;5094335;28;20127;-79
2021/10/11 11:17:54;;;;;;;1.95;1.00;;;20.10;93.70;;;;;;5088495;28;20052;-79
2021/10/11 11:20:24;;;;;;;2.95;0.90;;;20.20;93.80;;;;;;5095694;27;20563;-79
2021/10/11 11:22:54;;;;;;;2.65;0.95;;;20.00;94.50;;;;;;5094124;27;20088;-78
2021/10/11 11:25:28;;;;;;;1.98;0.95;;;20.00;93.20;;;;;;5066998;28;20413;-79
2021/10/11 11:27:57;;;;;;;2.90;1.13;;;20.20;93.60;;;;;;5093183;27;20324;-79
2021/10/11 11:30:26;;;;;;;1.63;0.80;;;20.20;92.80;;;;;;5086668;28;20039;-79
2021/10/11 11:32:58;;;;;;;1.98;0.90;;;20.30;92.40;;;;;;5090899;28;20047;-79
2021/10/11 11:35:28;;;;;;;1.38;0.80;;;20.30;92.20;;;;;;5088108;28;20039;-78
2021/10/11 11:37:59;;;;;;;1.75;0.90;;;20.40;92.10;;;;;;5088194;27;20050;-79
2021/10/11 11:40:33;;;;;;;2.13;0.63;;;20.50;91.20;;;;;;5103172;27;21692;-79
2021/10/11 11:43:04;;;;;;;3.53;0.90;;;20.60;90.80;;;;;;5077820;27;20390;-78
2021/10/11 11:45:39;;;;;;;2.92;0.75;;;20.50;91.00;;;;;;5079900;28;20043;-79
2021/10/11 11:48:11;;;;;;;2.10;0.85;;;20.50;90.60;;;;;;5086414;27;20062;-78
2021/10/11 11:50:41;;;;;;;1.80;0.70;;;20.60;90.60;;;;;;5086263;28;20040;-78
2021/10/11 11:53:11;;;;;;;1.33;0.93;;;20.60;89.70;;;;;;5083194;28;20547;-79
2021/10/11 11:55:40;;;;;;;1.10;0.63;;;20.60;90.30;;;;;;5086538;28;20058;-78
2021/10/11 11:58:15;;;;;;;3.28;0.75;;;20.70;90.30;;;;;;5084711;28;20501;-78
2021/10/11 12:00:48;;;;;;;2.35;0.90;;;20.80;90.30;;;;;;5084439;28;20097;-79
2021/10/11 12:03:20;;;;;;;1.02;0.70;;;20.90;90.10;;;;;;5082153;28;20362;-78
2021/10/11 12:05:51;;;;;;;1.95;0.80;;;20.90;90.50;;;;;;5087544;28;20046;-79
2021/10/11 12:08:20;;;;;;;1.23;0.80;;;20.90;90.60;;;;;;5091097;28;20398;-78
2021/10/11 12:10:56;;;;;;;1.60;0.60;;;21.00;89.50;;;;;;5083135;28;20054;-79
2021/10/11 12:13:29;;;;;;;2.25;0.70;;;20.90;89.20;;;;;;5083148;28;20056;-79
2021/10/11 12:15:58;;;;;;;2.25;0.70;;;21.00;89.40;;;;;;5068091;28;20152;-79
2021/10/11 12:18:37;;;;;;;0.75;0.73;;;21.00;89.40;;;;;;5082925;28;20086;-79
2021/10/11 12:21:07;;;;;;;4.78;1.48;;;20.90;89.60;;;;;;5095268;28;20090;-81
2021/10/11 12:23:41;;;;;;;1.75;0.80;;;21.10;90.20;;;;;;5090031;28;20047;-82
2021/10/11 12:26:10;;;;;;;2.38;0.82;;;21.10;89.70;;;;;;5092734;28;20252;-80
2021/10/11 12:28:50;;;;;;;1.65;1.38;;;21.30;89.70;;;;;;5083781;28;20044;-79
2021/10/11 12:31:23;;;;;;;1.58;0.70;;;21.30;89.90;;;;;;5091885;28;20043;-81
2021/10/11 12:34:03;;;;;;;3.25;1.02;;;21.40;88.90;;;;;;5086727;28;20139;-79
2021/10/11 12:36:32;;;;;;;1.30;0.73;;;21.40;89.00;;;;;;5087003;28;20052;-79
2021/10/11 12:39:09;;;;;;;0.70;0.60;;;21.30;88.50;;;;;;5074283;28;20824;-78
2021/10/11 12:41:40;;;;;;;1.30;0.80;;;21.50;89.10;;;;;;5087199;28;20468;-79
2021/10/11 12:44:14;;;;;;;1.73;1.10;;;21.50;88.90;;;;;;5082339;28;20043;-78
2021/10/11 12:46:44;;;;;;;2.85;1.13;;;21.60;89.00;;;;;;5089789;28;20130;-78
2021/10/11 12:49:16;;;;;;;1.70;1.08;;;21.70;89.10;;;;;;5090007;28;20048;-79
2021/10/11 12:51:49;;;;;;;3.03;0.90;;;21.80;88.90;;;;;;5091827;28;20047;-79
2021/10/11 12:54:19;;;;;;;4.15;1.00;;;21.90;88.70;;;;;;5091156;28;20067;-80
2021/10/11 12:56:49;;;;;;;2.60;0.88;;;22.00;89.00;;;;;;5081752;28;20723;-80
2021/10/11 12:59:19;;;;;;;2.08;1.00;;;21.80;87.50;;;;;;5095003;27;20047;-78